sensor_id;sensor_type;location;lat;lon;timestamp;P1;durP1;ratioP1;P2;durP2;ratioP2
52170;SDS011;38689;47.552;18.820;2023-07-31T00:00:44;5.32;;;3.65;;
52170;SDS011;38689;47.552;18.820;2023-07-31T00:03:11;6.85;;;4.30;;
52170;SDS011;38689;47.552;18.820;2023-07-31T00:05:37;4.93;;;3.67;;
52170;SDS011;38689;47.552;18.820;2023-07-31T00:08:03;5.37;;;3.83;;
52170;SDS011;38689;47.552;18.820;2023-07-31T00:10:29;5.10;;;3.97;;
52170;SDS011;38689;47.552;18.820;2023-07-31T00:12:55;5.60;;;3.53;;
52170;SDS011;38689;47.552;18.820;2023-07-31T00:15:21;4.78;;;3.70;;
52170;SDS011;38689;47.552;18.820;2023-07-31T00:17:47;5.03;;;3.90;;
52170;SDS011;38689;47.552;18.820;2023-07-31T00:20:14;4.80;;;3.62;;
52170;SDS011;38689;47.552;18.820;2023-07-31T00:22:40;4.32;;;3.47;;
52170;SDS011;38689;47.552;18.820;2023-07-31T00:25:06;4.50;;;3.58;;
52170;SDS011;38689;47.552;18.820;2023-07-31T00:27:32;4.90;;;3.67;;
52170;SDS011;38689;47.552;18.820;2023-07-31T00:29:58;5.30;;;4.00;;
52170;SDS011;38689;47.552;18.820;2023-07-31T00:32:24;4.90;;;3.83;;
52170;SDS011;38689;47.552;18.820;2023-07-31T00:34:50;5.80;;;3.90;;
52170;SDS011;38689;47.552;18.820;2023-07-31T00:37:16;5.10;;;3.97;;
52170;SDS011;38689;47.552;18.820;2023-07-31T00:39:42;5.68;;;4.10;;
52170;SDS011;38689;47.552;18.820;2023-07-31T00:42:08;8.07;;;4.62;;
52170;SDS011;38689;47.552;18.820;2023-07-31T00:44:34;4.97;;;4.00;;
52170;SDS011;38689;47.552;18.820;2023-07-31T00:46:59;5.87;;;4.30;;
52170;SDS011;38689;47.552;18.820;2023-07-31T00:49:26;6.43;;;4.28;;
52170;SDS011;38689;47.552;18.820;2023-07-31T00:51:52;6.93;;;4.50;;
52170;SDS011;38689;47.552;18.820;2023-07-31T00:54:18;5.37;;;4.00;;
52170;SDS011;38689;47.552;18.820;2023-07-31T00:56:45;6.20;;;4.10;;
52170;SDS011;38689;47.552;18.820;2023-07-31T00:59:14;5.97;;;4.57;;
52170;SDS011;38689;47.552;18.820;2023-07-31T01:01:40;6.55;;;4.22;;
52170;SDS011;38689;47.552;18.820;2023-07-31T01:04:06;7.40;;;4.32;;
52170;SDS011;38689;47.552;18.820;2023-07-31T01:06:48;6.00;;;3.87;;
52170;SDS011;38689;47.552;18.820;2023-07-31T01:12:07;6.53;;;4.57;;
52170;SDS011;38689;47.552;18.820;2023-07-31T01:14:33;12.48;;;4.60;;
52170;SDS011;38689;47.552;18.820;2023-07-31T01:16:59;7.00;;;4.35;;
52170;SDS011;38689;47.552;18.820;2023-07-31T01:19:27;5.03;;;3.95;;
52170;SDS011;38689;47.552;18.820;2023-07-31T01:25:00;6.32;;;4.57;;
52170;SDS011;38689;47.552;18.820;2023-07-31T01:28:05;6.32;;;4.20;;
52170;SDS011;38689;47.552;18.820;2023-07-31T01:30:34;5.50;;;4.47;;
52170;SDS011;38689;47.552;18.820;2023-07-31T01:33:04;7.07;;;4.40;;
52170;SDS011;38689;47.552;18.820;2023-07-31T01:35:36;6.05;;;4.20;;
52170;SDS011;38689;47.552;18.820;2023-07-31T01:38:03;4.65;;;3.90;;
52170;SDS011;38689;47.552;18.820;2023-07-31T01:40:30;5.55;;;4.03;;
52170;SDS011;38689;47.552;18.820;2023-07-31T01:42:56;5.20;;;3.60;;
52170;SDS011;38689;47.552;18.820;2023-07-31T01:45:22;4.47;;;3.50;;
52170;SDS011;38689;47.552;18.820;2023-07-31T01:47:48;4.50;;;3.50;;
52170;SDS011;38689;47.552;18.820;2023-07-31T01:50:13;4.25;;;3.12;;
52170;SDS011;38689;47.552;18.820;2023-07-31T01:52:39;6.62;;;3.42;;
52170;SDS011;38689;47.552;18.820;2023-07-31T01:55:05;4.18;;;3.37;;
52170;SDS011;38689;47.552;18.820;2023-07-31T01:57:31;4.95;;;3.17;;
52170;SDS011;38689;47.552;18.820;2023-07-31T01:59:57;5.03;;;3.00;;
52170;SDS011;38689;47.552;18.820;2023-07-31T02:02:23;5.25;;;3.50;;
52170;SDS011;38689;47.552;18.820;2023-07-31T02:04:49;5.70;;;3.12;;
52170;SDS011;38689;47.552;18.820;2023-07-31T02:07:15;4.68;;;3.15;;
52170;SDS011;38689;47.552;18.820;2023-07-31T02:09:41;4.12;;;3.03;;
52170;SDS011;38689;47.552;18.820;2023-07-31T02:12:07;4.20;;;3.12;;
52170;SDS011;38689;47.552;18.820;2023-07-31T02:14:34;7.05;;;3.40;;
52170;SDS011;38689;47.552;18.820;2023-07-31T02:17:00;5.80;;;3.42;;
52170;SDS011;38689;47.552;18.820;2023-07-31T02:19:27;7.93;;;3.15;;
52170;SDS011;38689;47.552;18.820;2023-07-31T02:21:53;4.22;;;3.05;;
52170;SDS011;38689;47.552;18.820;2023-07-31T02:24:19;4.45;;;3.10;;
52170;SDS011;38689;47.552;18.820;2023-07-31T02:26:45;6.32;;;3.35;;
52170;SDS011;38689;47.552;18.820;2023-07-31T02:29:11;3.80;;;3.00;;
52170;SDS011;38689;47.552;18.820;2023-07-31T02:31:37;4.78;;;3.15;;
52170;SDS011;38689;47.552;18.820;2023-07-31T02:34:03;4.65;;;2.70;;
52170;SDS011;38689;47.552;18.820;2023-07-31T02:36:29;5.57;;;3.00;;
52170;SDS011;38689;47.552;18.820;2023-07-31T02:38:55;4.55;;;3.00;;
52170;SDS011;38689;47.552;18.820;2023-07-31T02:41:21;3.60;;;2.97;;
52170;SDS011;38689;47.552;18.820;2023-07-31T02:43:47;4.82;;;2.80;;
52170;SDS011;38689;47.552;18.820;2023-07-31T02:46:12;5.05;;;2.92;;
52170;SDS011;38689;47.552;18.820;2023-07-31T02:48:38;5.50;;;2.78;;
52170;SDS011;38689;47.552;18.820;2023-07-31T02:51:04;3.42;;;2.75;;
52170;SDS011;38689;47.552;18.820;2023-07-31T02:53:30;5.30;;;3.00;;
52170;SDS011;38689;47.552;18.820;2023-07-31T02:55:56;4.12;;;2.70;;
52170;SDS011;38689;47.552;18.820;2023-07-31T02:58:22;6.10;;;3.00;;
52170;SDS011;38689;47.552;18.820;2023-07-31T03:00:48;6.20;;;3.00;;
52170;SDS011;38689;47.552;18.820;2023-07-31T03:03:14;5.45;;;2.92;;
52170;SDS011;38689;47.552;18.820;2023-07-31T03:05:40;5.30;;;2.78;;
52170;SDS011;38689;47.552;18.820;2023-07-31T03:08:06;4.25;;;2.75;;
52170;SDS011;38689;47.552;18.820;2023-07-31T03:10:32;4.78;;;2.90;;
52170;SDS011;38689;47.552;18.820;2023-07-31T03:12:58;4.53;;;2.80;;
52170;SDS011;38689;47.552;18.820;2023-07-31T03:15:24;4.47;;;2.70;;
52170;SDS011;38689;47.552;18.820;2023-07-31T03:17:51;3.28;;;2.65;;
52170;SDS011;38689;47.552;18.820;2023-07-31T03:20:17;3.53;;;2.47;;
52170;SDS011;38689;47.552;18.820;2023-07-31T03:22:43;5.22;;;2.62;;
52170;SDS011;38689;47.552;18.820;2023-07-31T03:25:09;3.65;;;2.70;;
52170;SDS011;38689;47.552;18.820;2023-07-31T03:27:35;4.32;;;2.55;;
52170;SDS011;38689;47.552;18.820;2023-07-31T03:30:02;5.03;;;2.50;;
52170;SDS011;38689;47.552;18.820;2023-07-31T03:32:28;5.57;;;2.90;;
52170;SDS011;38689;47.552;18.820;2023-07-31T03:34:54;5.25;;;2.67;;
52170;SDS011;38689;47.552;18.820;2023-07-31T03:37:20;6.75;;;2.78;;
52170;SDS011;38689;47.552;18.820;2023-07-31T03:39:46;3.47;;;2.35;;
52170;SDS011;38689;47.552;18.820;2023-07-31T03:42:12;3.10;;;2.42;;
52170;SDS011;38689;47.552;18.820;2023-07-31T03:44:38;4.50;;;2.35;;
52170;SDS011;38689;47.552;18.820;2023-07-31T03:47:04;5.75;;;2.20;;
52170;SDS011;38689;47.552;18.820;2023-07-31T03:49:30;4.43;;;2.70;;
52170;SDS011;38689;47.552;18.820;2023-07-31T03:51:56;4.03;;;2.58;;
52170;SDS011;38689;47.552;18.820;2023-07-31T03:54:22;3.33;;;2.30;;
52170;SDS011;38689;47.552;18.820;2023-07-31T03:56:48;3.03;;;2.25;;
52170;SDS011;38689;47.552;18.820;2023-07-31T03:59:14;3.72;;;2.40;;
52170;SDS011;38689;47.552;18.820;2023-07-31T04:01:40;3.75;;;2.40;;
52170;SDS011;38689;47.552;18.820;2023-07-31T04:04:06;5.32;;;2.55;;
52170;SDS011;38689;47.552;18.820;2023-07-31T04:06:32;3.10;;;2.40;;
52170;SDS011;38689;47.552;18.820;2023-07-31T04:08:58;3.30;;;2.30;;
52170;SDS011;38689;47.552;18.820;2023-07-31T04:11:24;3.35;;;2.17;;
52170;SDS011;38689;47.552;18.820;2023-07-31T04:13:50;3.95;;;2.70;;
52170;SDS011;38689;47.552;18.820;2023-07-31T04:16:16;4.03;;;2.40;;
52170;SDS011;38689;47.552;18.820;2023-07-31T04:18:43;3.00;;;2.20;;
52170;SDS011;38689;47.552;18.820;2023-07-31T04:21:09;4.68;;;2.30;;
52170;SDS011;38689;47.552;18.820;2023-07-31T04:23:35;4.18;;;2.10;;
52170;SDS011;38689;47.552;18.820;2023-07-31T04:26:01;3.17;;;2.10;;
52170;SDS011;38689;47.552;18.820;2023-07-31T04:28:27;3.37;;;2.20;;
52170;SDS011;38689;47.552;18.820;2023-07-31T04:30:53;3.53;;;2.00;;
52170;SDS011;38689;47.552;18.820;2023-07-31T04:33:19;2.83;;;2.20;;
52170;SDS011;38689;47.552;18.820;2023-07-31T04:35:52;2.62;;;2.10;;
52170;SDS011;38689;47.552;18.820;2023-07-31T04:40:45;3.00;;;2.20;;
52170;SDS011;38689;47.552;18.820;2023-07-31T04:43:11;2.87;;;2.10;;
52170;SDS011;38689;47.552;18.820;2023-07-31T04:45:37;4.87;;;2.20;;
52170;SDS011;38689;47.552;18.820;2023-07-31T04:48:03;3.33;;;2.10;;
52170;SDS011;38689;47.552;18.820;2023-07-31T04:50:29;2.92;;;2.00;;
52170;SDS011;38689;47.552;18.820;2023-07-31T04:52:56;4.28;;;2.20;;
52170;SDS011;38689;47.552;18.820;2023-07-31T04:55:22;3.10;;;2.17;;
52170;SDS011;38689;47.552;18.820;2023-07-31T04:57:48;4.62;;;1.92;;
52170;SDS011;38689;47.552;18.820;2023-07-31T05:00:14;4.15;;;2.50;;
52170;SDS011;38689;47.552;18.820;2023-07-31T05:02:40;2.92;;;2.10;;
52170;SDS011;38689;47.552;18.820;2023-07-31T05:05:06;4.10;;;2.20;;
52170;SDS011;38689;47.552;18.820;2023-07-31T05:07:32;3.33;;;1.98;;
52170;SDS011;38689;47.552;18.820;2023-07-31T05:09:58;2.97;;;2.00;;
52170;SDS011;38689;47.552;18.820;2023-07-31T05:12:24;2.80;;;1.90;;
52170;SDS011;38689;47.552;18.820;2023-07-31T05:14:50;3.10;;;2.00;;
52170;SDS011;38689;47.552;18.820;2023-07-31T05:17:16;2.25;;;1.70;;
52170;SDS011;38689;47.552;18.820;2023-07-31T05:19:42;2.53;;;1.80;;
52170;SDS011;38689;47.552;18.820;2023-07-31T05:22:08;4.37;;;2.35;;
52170;SDS011;38689;47.552;18.820;2023-07-31T05:24:34;2.60;;;1.45;;
52170;SDS011;38689;47.552;18.820;2023-07-31T05:27:00;3.42;;;1.50;;
52170;SDS011;38689;47.552;18.820;2023-07-31T05:29:25;3.20;;;1.70;;
52170;SDS011;38689;47.552;18.820;2023-07-31T05:31:51;2.90;;;1.60;;
52170;SDS011;38689;47.552;18.820;2023-07-31T05:34:17;2.72;;;1.60;;
52170;SDS011;38689;47.552;18.820;2023-07-31T05:36:43;2.80;;;1.60;;
52170;SDS011;38689;47.552;18.820;2023-07-31T05:39:09;3.30;;;1.65;;
52170;SDS011;38689;47.552;18.820;2023-07-31T05:41:35;3.62;;;1.45;;
52170;SDS011;38689;47.552;18.820;2023-07-31T05:44:01;3.05;;;1.60;;
52170;SDS011;38689;47.552;18.820;2023-07-31T05:46:28;3.45;;;1.60;;
52170;SDS011;38689;47.552;18.820;2023-07-31T05:48:54;2.65;;;1.62;;
52170;SDS011;38689;47.552;18.820;2023-07-31T05:51:20;2.85;;;1.70;;
52170;SDS011;38689;47.552;18.820;2023-07-31T05:53:45;3.47;;;1.40;;
52170;SDS011;38689;47.552;18.820;2023-07-31T05:56:11;4.93;;;1.90;;
52170;SDS011;38689;47.552;18.820;2023-07-31T05:58:37;3.05;;;1.60;;
52170;SDS011;38689;47.552;18.820;2023-07-31T06:01:03;2.70;;;1.48;;
52170;SDS011;38689;47.552;18.820;2023-07-31T06:03:29;2.53;;;1.50;;
52170;SDS011;38689;47.552;18.820;2023-07-31T06:05:56;5.12;;;1.70;;
52170;SDS011;38689;47.552;18.820;2023-07-31T06:08:21;2.65;;;1.62;;
52170;SDS011;38689;47.552;18.820;2023-07-31T06:10:47;2.47;;;1.50;;
52170;SDS011;38689;47.552;18.820;2023-07-31T06:13:13;2.47;;;1.33;;
52170;SDS011;38689;47.552;18.820;2023-07-31T06:15:39;3.92;;;1.70;;
52170;SDS011;38689;47.552;18.820;2023-07-31T06:18:06;3.03;;;1.58;;
52170;SDS011;38689;47.552;18.820;2023-07-31T06:20:33;2.90;;;1.50;;
52170;SDS011;38689;47.552;18.820;2023-07-31T06:23:00;4.90;;;1.60;;
52170;SDS011;38689;47.552;18.820;2023-07-31T06:25:26;3.28;;;1.60;;
52170;SDS011;38689;47.552;18.820;2023-07-31T06:27:51;4.00;;;1.83;;
52170;SDS011;38689;47.552;18.820;2023-07-31T06:30:17;3.55;;;1.50;;
52170;SDS011;38689;47.552;18.820;2023-07-31T06:32:43;3.42;;;1.30;;
52170;SDS011;38689;47.552;18.820;2023-07-31T06:35:09;2.62;;;1.55;;
52170;SDS011;38689;47.552;18.820;2023-07-31T06:37:35;3.42;;;1.73;;
52170;SDS011;38689;47.552;18.820;2023-07-31T06:40:01;2.30;;;1.55;;
52170;SDS011;38689;47.552;18.820;2023-07-31T06:42:27;2.72;;;1.60;;
52170;SDS011;38689;47.552;18.820;2023-07-31T06:44:53;3.00;;;1.40;;
52170;SDS011;38689;47.552;18.820;2023-07-31T06:47:19;3.90;;;1.70;;
52170;SDS011;38689;47.552;18.820;2023-07-31T06:49:45;2.85;;;1.60;;
52170;SDS011;38689;47.552;18.820;2023-07-31T06:52:11;2.95;;;1.65;;
52170;SDS011;38689;47.552;18.820;2023-07-31T06:54:37;3.85;;;1.87;;
52170;SDS011;38689;47.552;18.820;2023-07-31T06:57:03;2.85;;;1.60;;
52170;SDS011;38689;47.552;18.820;2023-07-31T06:59:29;2.55;;;1.58;;
52170;SDS011;38689;47.552;18.820;2023-07-31T07:01:55;2.62;;;1.80;;
52170;SDS011;38689;47.552;18.820;2023-07-31T07:04:21;1.90;;;1.40;;
52170;SDS011;38689;47.552;18.820;2023-07-31T07:06:47;4.25;;;1.80;;
52170;SDS011;38689;47.552;18.820;2023-07-31T07:09:13;3.22;;;1.62;;
52170;SDS011;38689;47.552;18.820;2023-07-31T07:11:39;2.47;;;1.50;;
52170;SDS011;38689;47.552;18.820;2023-07-31T07:14:05;4.20;;;1.83;;
52170;SDS011;38689;47.552;18.820;2023-07-31T07:16:31;3.17;;;1.70;;
52170;SDS011;38689;47.552;18.820;2023-07-31T07:18:58;3.45;;;1.60;;
52170;SDS011;38689;47.552;18.820;2023-07-31T07:21:24;2.80;;;1.75;;
52170;SDS011;38689;47.552;18.820;2023-07-31T07:23:50;3.62;;;1.80;;
52170;SDS011;38689;47.552;18.820;2023-07-31T07:26:16;2.85;;;1.98;;
52170;SDS011;38689;47.552;18.820;2023-07-31T07:28:42;4.62;;;1.60;;
52170;SDS011;38689;47.552;18.820;2023-07-31T07:31:08;2.30;;;1.52;;
52170;SDS011;38689;47.552;18.820;2023-07-31T07:33:34;3.33;;;1.77;;
52170;SDS011;38689;47.552;18.820;2023-07-31T07:36:00;4.57;;;1.65;;
52170;SDS011;38689;47.552;18.820;2023-07-31T07:38:27;4.00;;;1.52;;
52170;SDS011;38689;47.552;18.820;2023-07-31T07:40:53;2.28;;;1.60;;
52170;SDS011;38689;47.552;18.820;2023-07-31T07:43:19;3.22;;;1.50;;
52170;SDS011;38689;47.552;18.820;2023-07-31T07:45:45;3.72;;;1.60;;
52170;SDS011;38689;47.552;18.820;2023-07-31T07:48:11;3.75;;;1.65;;
52170;SDS011;38689;47.552;18.820;2023-07-31T07:50:38;3.40;;;1.58;;
52170;SDS011;38689;47.552;18.820;2023-07-31T07:53:04;5.32;;;1.48;;
52170;SDS011;38689;47.552;18.820;2023-07-31T07:55:30;3.22;;;1.58;;
52170;SDS011;38689;47.552;18.820;2023-07-31T07:57:56;2.67;;;1.80;;
52170;SDS011;38689;47.552;18.820;2023-07-31T08:00:22;2.92;;;1.70;;
52170;SDS011;38689;47.552;18.820;2023-07-31T08:02:48;4.15;;;1.80;;
52170;SDS011;38689;47.552;18.820;2023-07-31T08:05:14;3.53;;;1.55;;
52170;SDS011;38689;47.552;18.820;2023-07-31T08:07:40;4.12;;;1.90;;
52170;SDS011;38689;47.552;18.820;2023-07-31T08:10:06;3.08;;;1.62;;
52170;SDS011;38689;47.552;18.820;2023-07-31T08:12:32;4.78;;;1.77;;
52170;SDS011;38689;47.552;18.820;2023-07-31T08:14:58;3.25;;;1.80;;
52170;SDS011;38689;47.552;18.820;2023-07-31T08:17:25;3.33;;;1.60;;
52170;SDS011;38689;47.552;18.820;2023-07-31T08:19:51;3.53;;;1.73;;
52170;SDS011;38689;47.552;18.820;2023-07-31T08:22:17;3.65;;;1.65;;
52170;SDS011;38689;47.552;18.820;2023-07-31T08:24:43;2.92;;;1.80;;
52170;SDS011;38689;47.552;18.820;2023-07-31T08:27:09;2.67;;;1.77;;
52170;SDS011;38689;47.552;18.820;2023-07-31T08:29:35;3.67;;;1.70;;
52170;SDS011;38689;47.552;18.820;2023-07-31T08:32:01;2.55;;;1.48;;
52170;SDS011;38689;47.552;18.820;2023-07-31T08:34:27;3.35;;;1.70;;
52170;SDS011;38689;47.552;18.820;2023-07-31T08:36:53;3.55;;;1.80;;
52170;SDS011;38689;47.552;18.820;2023-07-31T08:39:19;2.58;;;1.52;;
52170;SDS011;38689;47.552;18.820;2023-07-31T08:41:45;3.03;;;1.65;;
52170;SDS011;38689;47.552;18.820;2023-07-31T08:44:11;3.83;;;1.70;;
52170;SDS011;38689;47.552;18.820;2023-07-31T08:46:38;4.60;;;1.73;;
52170;SDS011;38689;47.552;18.820;2023-07-31T08:49:05;2.83;;;1.52;;
52170;SDS011;38689;47.552;18.820;2023-07-31T08:51:34;2.80;;;1.42;;
52170;SDS011;38689;47.552;18.820;2023-07-31T08:54:01;4.15;;;1.45;;
52170;SDS011;38689;47.552;18.820;2023-07-31T08:56:27;3.08;;;1.40;;
52170;SDS011;38689;47.552;18.820;2023-07-31T08:58:54;2.28;;;1.40;;
52170;SDS011;38689;47.552;18.820;2023-07-31T09:01:20;2.95;;;1.45;;
52170;SDS011;38689;47.552;18.820;2023-07-31T09:03:46;4.12;;;1.40;;
52170;SDS011;38689;47.552;18.820;2023-07-31T09:06:13;2.85;;;1.40;;
52170;SDS011;38689;47.552;18.820;2023-07-31T09:08:39;5.97;;;1.70;;
52170;SDS011;38689;47.552;18.820;2023-07-31T09:11:07;4.07;;;1.65;;
52170;SDS011;38689;47.552;18.820;2023-07-31T09:13:33;3.83;;;1.65;;
52170;SDS011;38689;47.552;18.820;2023-07-31T09:15:59;9.80;;;1.67;;
52170;SDS011;38689;47.552;18.820;2023-07-31T09:18:27;3.20;;;1.60;;
52170;SDS011;38689;47.552;18.820;2023-07-31T09:21:05;2.25;;;1.50;;
52170;SDS011;38689;47.552;18.820;2023-07-31T09:23:44;3.75;;;1.90;;
52170;SDS011;38689;47.552;18.820;2023-07-31T09:26:11;2.47;;;1.60;;
52170;SDS011;38689;47.552;18.820;2023-07-31T09:28:54;2.60;;;1.58;;
52170;SDS011;38689;47.552;18.820;2023-07-31T09:31:39;2.80;;;1.23;;
52170;SDS011;38689;47.552;18.820;2023-07-31T09:34:07;2.53;;;1.37;;
52170;SDS011;38689;47.552;18.820;2023-07-31T09:36:39;3.83;;;1.50;;
52170;SDS011;38689;47.552;18.820;2023-07-31T09:39:09;3.87;;;1.67;;
52170;SDS011;38689;47.552;18.820;2023-07-31T09:41:40;2.53;;;1.33;;
52170;SDS011;38689;47.552;18.820;2023-07-31T09:44:11;5.55;;;1.50;;
52170;SDS011;38689;47.552;18.820;2023-07-31T09:46:37;2.25;;;1.12;;
52170;SDS011;38689;47.552;18.820;2023-07-31T09:49:12;2.50;;;1.40;;
52170;SDS011;38689;47.552;18.820;2023-07-31T09:51:40;3.22;;;1.20;;
52170;SDS011;38689;47.552;18.820;2023-07-31T09:54:11;1.75;;;1.17;;
52170;SDS011;38689;47.552;18.820;2023-07-31T09:56:42;3.08;;;1.30;;
52170;SDS011;38689;47.552;18.820;2023-07-31T09:59:10;2.00;;;1.10;;
52170;SDS011;38689;47.552;18.820;2023-07-31T10:01:37;4.65;;;1.70;;
52170;SDS011;38689;47.552;18.820;2023-07-31T10:04:05;5.55;;;1.40;;
52170;SDS011;38689;47.552;18.820;2023-07-31T10:06:34;2.95;;;1.40;;
52170;SDS011;38689;47.552;18.820;2023-07-31T10:09:01;4.53;;;1.30;;
52170;SDS011;38689;47.552;18.820;2023-07-31T10:11:28;2.90;;;1.30;;
52170;SDS011;38689;47.552;18.820;2023-07-31T10:13:55;2.40;;;1.25;;
52170;SDS011;38689;47.552;18.820;2023-07-31T10:16:21;2.70;;;1.20;;
52170;SDS011;38689;47.552;18.820;2023-07-31T10:18:49;3.35;;;1.37;;
52170;SDS011;38689;47.552;18.820;2023-07-31T10:21:15;3.70;;;1.50;;
52170;SDS011;38689;47.552;18.820;2023-07-31T10:23:41;3.92;;;1.40;;
52170;SDS011;38689;47.552;18.820;2023-07-31T10:26:08;3.10;;;1.37;;
52170;SDS011;38689;47.552;18.820;2023-07-31T10:28:36;3.40;;;1.25;;
52170;SDS011;38689;47.552;18.820;2023-07-31T10:31:02;2.90;;;1.20;;
52170;SDS011;38689;47.552;18.820;2023-07-31T10:33:28;3.80;;;1.33;;
52170;SDS011;38689;47.552;18.820;2023-07-31T10:38:40;2.87;;;1.20;;
52170;SDS011;38689;47.552;18.820;2023-07-31T10:41:09;3.62;;;1.10;;
52170;SDS011;38689;47.552;18.820;2023-07-31T10:43:36;4.62;;;1.25;;
52170;SDS011;38689;47.552;18.820;2023-07-31T10:46:09;2.05;;;1.30;;
52170;SDS011;38689;47.552;18.820;2023-07-31T10:48:38;2.60;;;1.20;;
52170;SDS011;38689;47.552;18.820;2023-07-31T10:51:10;5.25;;;1.30;;
52170;SDS011;38689;47.552;18.820;2023-07-31T10:53:41;2.72;;;1.20;;
52170;SDS011;38689;47.552;18.820;2023-07-31T10:56:08;3.30;;;1.30;;
52170;SDS011;38689;47.552;18.820;2023-07-31T10:58:38;3.45;;;1.27;;
52170;SDS011;38689;47.552;18.820;2023-07-31T11:01:04;4.12;;;1.10;;
52170;SDS011;38689;47.552;18.820;2023-07-31T11:06:12;2.12;;;1.25;;
52170;SDS011;38689;47.552;18.820;2023-07-31T11:08:44;2.37;;;1.08;;
52170;SDS011;38689;47.552;18.820;2023-07-31T11:13:46;2.87;;;1.12;;
52170;SDS011;38689;47.552;18.820;2023-07-31T11:16:18;3.05;;;1.10;;
52170;SDS011;38689;47.552;18.820;2023-07-31T11:18:46;2.28;;;1.05;;
52170;SDS011;38689;47.552;18.820;2023-07-31T11:21:14;2.58;;;1.05;;
52170;SDS011;38689;47.552;18.820;2023-07-31T11:23:41;2.47;;;1.10;;
52170;SDS011;38689;47.552;18.820;2023-07-31T11:26:11;2.92;;;1.10;;
52170;SDS011;38689;47.552;18.820;2023-07-31T11:28:37;3.05;;;1.10;;
52170;SDS011;38689;47.552;18.820;2023-07-31T11:31:04;3.08;;;1.20;;
52170;SDS011;38689;47.552;18.820;2023-07-31T11:33:30;3.55;;;1.10;;
52170;SDS011;38689;47.552;18.820;2023-07-31T11:35:56;2.15;;;0.90;;
52170;SDS011;38689;47.552;18.820;2023-07-31T11:38:25;2.87;;;1.10;;
52170;SDS011;38689;47.552;18.820;2023-07-31T11:40:53;2.53;;;1.00;;
52170;SDS011;38689;47.552;18.820;2023-07-31T11:43:20;3.05;;;1.10;;
52170;SDS011;38689;47.552;18.820;2023-07-31T11:45:51;3.25;;;1.12;;
52170;SDS011;38689;47.552;18.820;2023-07-31T11:48:39;3.83;;;1.05;;
52170;SDS011;38689;47.552;18.820;2023-07-31T11:51:05;3.45;;;1.00;;
52170;SDS011;38689;47.552;18.820;2023-07-31T11:53:35;3.17;;;1.10;;
52170;SDS011;38689;47.552;18.820;2023-07-31T11:56:02;4.35;;;1.10;;
52170;SDS011;38689;47.552;18.820;2023-07-31T11:58:32;2.40;;;1.10;;
52170;SDS011;38689;47.552;18.820;2023-07-31T12:01:00;2.28;;;1.08;;
52170;SDS011;38689;47.552;18.820;2023-07-31T12:03:26;3.40;;;1.08;;
52170;SDS011;38689;47.552;18.820;2023-07-31T12:05:53;4.00;;;1.10;;
52170;SDS011;38689;47.552;18.820;2023-07-31T12:08:23;2.17;;;0.90;;
52170;SDS011;38689;47.552;18.820;2023-07-31T12:10:50;1.65;;;0.95;;
52170;SDS011;38689;47.552;18.820;2023-07-31T12:13:23;4.07;;;1.10;;
52170;SDS011;38689;47.552;18.820;2023-07-31T12:16:10;3.50;;;1.30;;
52170;SDS011;38689;47.552;18.820;2023-07-31T12:18:37;4.10;;;1.30;;
52170;SDS011;38689;47.552;18.820;2023-07-31T12:21:05;2.72;;;1.05;;
52170;SDS011;38689;47.552;18.820;2023-07-31T12:23:32;2.83;;;1.20;;
52170;SDS011;38689;47.552;18.820;2023-07-31T12:28:37;2.33;;;1.30;;
52170;SDS011;38689;47.552;18.820;2023-07-31T12:31:08;1.27;;;0.90;;
52170;SDS011;38689;47.552;18.820;2023-07-31T12:33:35;2.37;;;1.10;;
52170;SDS011;38689;47.552;18.820;2023-07-31T12:36:03;3.67;;;1.10;;
52170;SDS011;38689;47.552;18.820;2023-07-31T12:38:36;1.87;;;0.90;;
52170;SDS011;38689;47.552;18.820;2023-07-31T12:41:02;2.58;;;1.00;;
52170;SDS011;38689;47.552;18.820;2023-07-31T12:43:28;1.35;;;1.00;;
52170;SDS011;38689;47.552;18.820;2023-07-31T12:45:54;4.22;;;1.30;;
52170;SDS011;38689;47.552;18.820;2023-07-31T12:48:21;4.03;;;1.25;;
52170;SDS011;38689;47.552;18.820;2023-07-31T12:50:47;2.25;;;1.10;;
52170;SDS011;38689;47.552;18.820;2023-07-31T12:53:14;3.42;;;1.20;;
52170;SDS011;38689;47.552;18.820;2023-07-31T12:55:40;1.95;;;1.02;;
52170;SDS011;38689;47.552;18.820;2023-07-31T12:58:07;4.45;;;1.20;;
52170;SDS011;38689;47.552;18.820;2023-07-31T13:00:33;2.00;;;1.17;;
52170;SDS011;38689;47.552;18.820;2023-07-31T13:02:59;2.25;;;1.30;;
52170;SDS011;38689;47.552;18.820;2023-07-31T13:05:28;1.98;;;1.10;;
52170;SDS011;38689;47.552;18.820;2023-07-31T13:07:54;3.35;;;1.20;;
52170;SDS011;38689;47.552;18.820;2023-07-31T13:10:21;2.33;;;1.20;;
52170;SDS011;38689;47.552;18.820;2023-07-31T13:12:48;2.50;;;1.20;;
52170;SDS011;38689;47.552;18.820;2023-07-31T13:15:13;2.30;;;1.00;;
52170;SDS011;38689;47.552;18.820;2023-07-31T13:17:39;2.40;;;1.12;;
52170;SDS011;38689;47.552;18.820;2023-07-31T13:20:06;2.62;;;1.00;;
52170;SDS011;38689;47.552;18.820;2023-07-31T13:22:32;2.83;;;1.20;;
52170;SDS011;38689;47.552;18.820;2023-07-31T13:24:58;2.33;;;1.10;;
52170;SDS011;38689;47.552;18.820;2023-07-31T13:27:24;1.45;;;1.00;;
52170;SDS011;38689;47.552;18.820;2023-07-31T13:29:53;1.87;;;1.10;;
52170;SDS011;38689;47.552;18.820;2023-07-31T13:32:21;6.35;;;1.20;;
52170;SDS011;38689;47.552;18.820;2023-07-31T13:34:47;3.70;;;1.10;;
52170;SDS011;38689;47.552;18.820;2023-07-31T13:37:14;2.25;;;1.25;;
52170;SDS011;38689;47.552;18.820;2023-07-31T13:39:40;3.10;;;1.15;;
52170;SDS011;38689;47.552;18.820;2023-07-31T13:42:06;3.22;;;1.25;;
52170;SDS011;38689;47.552;18.820;2023-07-31T13:44:34;1.90;;;1.00;;
52170;SDS011;38689;47.552;18.820;2023-07-31T13:47:00;2.17;;;1.10;;
52170;SDS011;38689;47.552;18.820;2023-07-31T13:49:27;1.67;;;1.10;;
52170;SDS011;38689;47.552;18.820;2023-07-31T13:51:53;3.40;;;1.02;;
52170;SDS011;38689;47.552;18.820;2023-07-31T13:54:19;2.45;;;1.00;;
52170;SDS011;38689;47.552;18.820;2023-07-31T13:56:45;2.62;;;1.08;;
52170;SDS011;38689;47.552;18.820;2023-07-31T13:59:11;2.42;;;1.20;;
52170;SDS011;38689;47.552;18.820;2023-07-31T14:01:37;2.15;;;1.20;;
52170;SDS011;38689;47.552;18.820;2023-07-31T14:04:03;2.75;;;1.20;;
52170;SDS011;38689;47.552;18.820;2023-07-31T14:06:29;3.37;;;1.23;;
52170;SDS011;38689;47.552;18.820;2023-07-31T14:08:55;2.90;;;1.20;;
52170;SDS011;38689;47.552;18.820;2023-07-31T14:11:23;2.08;;;1.10;;
52170;SDS011;38689;47.552;18.820;2023-07-31T14:13:50;2.55;;;0.98;;
52170;SDS011;38689;47.552;18.820;2023-07-31T14:16:16;3.58;;;1.20;;
52170;SDS011;38689;47.552;18.820;2023-07-31T14:18:44;2.10;;;0.98;;
52170;SDS011;38689;47.552;18.820;2023-07-31T14:21:11;3.03;;;1.23;;
52170;SDS011;38689;47.552;18.820;2023-07-31T14:23:38;2.67;;;1.20;;
52170;SDS011;38689;47.552;18.820;2023-07-31T14:26:04;1.67;;;1.10;;
52170;SDS011;38689;47.552;18.820;2023-07-31T14:28:30;2.25;;;1.10;;
52170;SDS011;38689;47.552;18.820;2023-07-31T14:30:56;2.58;;;1.00;;
52170;SDS011;38689;47.552;18.820;2023-07-31T14:33:22;1.75;;;1.00;;
52170;SDS011;38689;47.552;18.820;2023-07-31T14:35:47;2.20;;;1.20;;
52170;SDS011;38689;47.552;18.820;2023-07-31T14:38:13;2.87;;;1.25;;
52170;SDS011;38689;47.552;18.820;2023-07-31T14:40:39;3.03;;;1.20;;
52170;SDS011;38689;47.552;18.820;2023-07-31T14:43:05;3.50;;;1.35;;
52170;SDS011;38689;47.552;18.820;2023-07-31T14:45:31;2.97;;;0.95;;
52170;SDS011;38689;47.552;18.820;2023-07-31T14:47:57;2.60;;;1.00;;
52170;SDS011;38689;47.552;18.820;2023-07-31T14:50:23;4.20;;;1.30;;